EWG84A EDDM-EDDH
Flight info
| Callsign | EWG84A |
|---|---|
| Flight time | N/A |
| Altitude | 36000 |
| Route | INPUD3E INPUD Y102 UPALA M726 NARUS DCT ABGUS DCT DIRBO/N0404F230 T902 RARUP RARUP6A |
| Aircraft | A320/M-SDE3FGHIRWY/LB1 |
Departure
| Time | 2026-04-30 22:44 |
|---|---|
| Airport | Munich Airport (EDDM) |
Arrival
| Time | N/A |
|---|---|
| Airport | Hamburg Helmut Schmidt Airport (EDDH) |
| Time | Latitude | Longitude | Altitude | Speed | Heading |
|---|---|---|---|---|---|
| 2026-04-30 22:01 | 48.35355 | 11.79328 | 1486 ft | 0 kts | 263° |
| 2026-04-30 22:25 | 48.35355 | 11.79331 | 1471 ft | 2 kts | 263° |
| 2026-04-30 22:26 | 48.35361 | 11.79410 | 1479 ft | 4 kts | 263° |
| 2026-04-30 22:26 | 48.35365 | 11.79451 | 1481 ft | 4 kts | 263° |
| 2026-04-30 22:26 | 48.35368 | 11.79490 | 1485 ft | 4 kts | 263° |
| 2026-04-30 22:27 | 48.35370 | 11.79522 | 1472 ft | 4 kts | 269° |
| 2026-04-30 22:27 | 48.35369 | 11.79562 | 1485 ft | 4 kts | 270° |
| 2026-04-30 22:27 | 48.35387 | 11.79602 | 1485 ft | 4 kts | 173° |
| 2026-04-30 22:28 | 48.35401 | 11.79599 | 1485 ft | 0 kts | 173° |
| 2026-04-30 22:32 | 48.35377 | 11.79603 | 1474 ft | 9 kts | 173° |
| 2026-04-30 22:33 | 48.35216 | 11.79634 | 1482 ft | 11 kts | 172° |
| 2026-04-30 22:33 | 48.35085 | 11.79657 | 1485 ft | 8 kts | 174° |
| 2026-04-30 22:34 | 48.34799 | 11.79638 | 1478 ft | 13 kts | 252° |
| 2026-04-30 22:35 | 48.34775 | 11.79335 | 1483 ft | 15 kts | 262° |
| 2026-04-30 22:36 | 48.34727 | 11.78712 | 1473 ft | 15 kts | 263° |
| 2026-04-30 22:36 | 48.34715 | 11.78553 | 1485 ft | 15 kts | 263° |
| 2026-04-30 22:37 | 48.34676 | 11.78051 | 1485 ft | 17 kts | 263° |
| 2026-04-30 22:37 | 48.34661 | 11.77864 | 1485 ft | 19 kts | 263° |
| 2026-04-30 22:37 | 48.34629 | 11.77455 | 1485 ft | 21 kts | 263° |
| 2026-04-30 22:38 | 48.34594 | 11.76997 | 1477 ft | 23 kts | 263° |
| 2026-04-30 22:38 | 48.34561 | 11.76563 | 1475 ft | 19 kts | 263° |
| 2026-04-30 22:39 | 48.34548 | 11.76408 | 1473 ft | 14 kts | 263° |
| 2026-04-30 22:39 | 48.34514 | 11.75972 | 1481 ft | 17 kts | 264° |
| 2026-04-30 22:40 | 48.34470 | 11.75392 | 1485 ft | 20 kts | 263° |
| 2026-04-30 22:41 | 48.34262 | 11.75086 | 1485 ft | 18 kts | 173° |
| 2026-04-30 22:41 | 48.34205 | 11.75096 | 1485 ft | 0 kts | 173° |
| 2026-04-30 22:42 | 48.34080 | 11.75201 | 1475 ft | 7 kts | 111° |
| 2026-04-30 22:43 | 48.34152 | 11.76191 | 1479 ft | 111 kts | 83° |
| 2026-04-30 22:43 | 48.34375 | 11.79296 | 1993 ft | 164 kts | 82° |
| 2026-04-30 22:44 | 48.34689 | 11.82857 | 2951 ft | 183 kts | 82° |
| 2026-04-30 22:45 | 48.38705 | 11.87506 | 4424 ft | 265 kts | 347° |
| 2026-04-30 22:45 | 48.41537 | 11.83913 | 6055 ft | 278 kts | 310° |
| 2026-04-30 22:46 | 48.44158 | 11.79554 | 7720 ft | 283 kts | 315° |
| 2026-04-30 22:47 | 48.49817 | 11.70925 | 10919 ft | 295 kts | 316° |
| 2026-04-30 22:47 | 48.52690 | 11.66492 | 12424 ft | 300 kts | 316° |
| 2026-04-30 22:48 | 48.55626 | 11.61933 | 13849 ft | 305 kts | 317° |
| 2026-04-30 22:49 | 48.61375 | 11.57217 | 14894 ft | 342 kts | 341° |
| 2026-04-30 22:49 | 48.68383 | 11.53200 | 16280 ft | 366 kts | 341° |
| 2026-04-30 22:50 | 48.77997 | 11.47621 | 18587 ft | 377 kts | 341° |
| 2026-04-30 22:51 | 48.82927 | 11.44757 | 19671 ft | 382 kts | 341° |
| 2026-04-30 22:51 | 48.87939 | 11.41832 | 20720 ft | 388 kts | 341° |
| 2026-04-30 22:52 | 48.90476 | 11.40352 | 21233 ft | 391 kts | 342° |
| 2026-04-30 22:52 | 48.95574 | 11.37374 | 22198 ft | 397 kts | 342° |
| 2026-04-30 22:53 | 49.00764 | 11.34333 | 23105 ft | 402 kts | 342° |
| 2026-04-30 22:53 | 49.06027 | 11.31238 | 23944 ft | 408 kts | 342° |
| 2026-04-30 22:53 | 49.08681 | 11.29676 | 24350 ft | 410 kts | 342° |
| 2026-04-30 22:54 | 49.14034 | 11.26515 | 25110 ft | 414 kts | 342° |
| 2026-04-30 22:55 | 49.22264 | 11.22406 | 26185 ft | 415 kts | 355° |
| 2026-04-30 22:55 | 49.28018 | 11.22197 | 26864 ft | 415 kts | 3° |
| 2026-04-30 22:56 | 49.33785 | 11.22256 | 27513 ft | 418 kts | 3° |
| 2026-04-30 22:56 | 49.42573 | 11.22315 | 28416 ft | 423 kts | 3° |
| 2026-04-30 22:57 | 49.48482 | 11.22357 | 28968 ft | 426 kts | 3° |
| 2026-04-30 22:57 | 49.54435 | 11.22408 | 29481 ft | 429 kts | 3° |
| 2026-04-30 22:58 | 49.60420 | 11.22448 | 29961 ft | 431 kts | 2° |
| 2026-04-30 22:59 | 49.69425 | 11.22457 | 30662 ft | 433 kts | 2° |
| 2026-04-30 22:59 | 49.78432 | 11.22465 | 31515 ft | 430 kts | 2° |